x

Buoy I01 - Eastern Maine Shelf (44034) Wave Buoy

6:04 - Thu 19th Jan 2017 All times are EST. -5 hours from GMT.

  • Sig Wave height 4.3ft
  • Peak Period 6s
  • Wind
    9mph, 11mph gusts
  • Sea Temp 43°f
  • Ar Temp 36°f
  • Sea Pressure 1014.6mb
  • Buoy I01 - Eastern Maine Shelf
  • Buoy I01 - Eastern Maine Shelf

More Historic Weather Station data

Upgrade to MSW Pro to gain access to the past 30 days of data for over 8000 Wavebouys and Weather Stations around the globe.

Join Pro

Comparision Forecast

View Surf forecast
   
Qui 01/19 6:04 4.5ft 6s 9 11 mph 1014.6mb 43f 36f
5:04 4.5ft 6s 9 11 mph 1014.8mb 43f 35f
4:04 4.5ft 8s 7 9 mph 1014.9mb 44f 36f
3:04 5ft 8s 7 11 mph 1015.1mb 44f 36f
2:04 4.5ft 8s 7 9 mph 1015.5mb 44f 36f
1:04 4.5ft 6s 9 13 mph 1016mb 44f 36f
12:04 4.5ft 6s 9 11 mph 1016.2mb 43f 36f
Qua 01/18 11:04 4ft 5s 9 11 mph 1016.7mb 43f 35f
10:04 4.5ft 6s 9 13 mph 1017.6mb 43f 35f
9:04 4ft 6s 11 13 mph 1018.1mb 44f 35f
8:04 4.5ft 6s 11 16 mph 1018.4mb 44f 34f
7:04 5.5ft 5s 13 18 mph 1018.8mb 43f 34f
6:04 5.5ft 5s 16 20 mph 1018.6mb 44f 34f
5:04 6ft 6s 18 22 mph 1018.3mb 44f 34f
4:04 7ft 8s 18 22 mph 1018.1mb 45f 34f
3:04 6ft 8s 18 22 mph 1018.4mb 45f 33f
2:04 7ft 6s 20 27 mph 1018mb 45f 33f
1:04 6.5ft 6s 20 27 mph 1018.4mb 45f 33f
12:04 7ft 6s 20 25 mph 1018.5mb 45f 33f
11:04 7ft 6s 20 25 mph 1019.4mb 44f 33f
10:04 7ft 6s 22 27 mph 1020.3mb 44f 32f
9:04 7.5ft 6s 25 29 mph 1020.8mb 44f 32f
8:04 7ft 6s 22 27 mph 1021.2mb 45f 32f
7:04 6ft 6s 22 27 mph 1020.7mb 44f 32f
6:04 5ft 5s 25 31 mph 1020.7mb 45f 32f
5:04 5ft 5s 22 29 mph 1020.7mb 45f 32f
4:04 4.5ft 5s 22 25 mph 1021mb 45f 33f
3:04 4ft 5s 18 22 mph 1021.4mb 45f 34f
2:04 3.5ft 5s 20 25 mph 1022mb 45f 34f
1:04 3.5ft 5s 20 25 mph 1022.3mb 45f 34f
12:04 3.5ft 5s 18 22 mph 1022.7mb 45f 35f
Ter 01/17 11:04 3ft 5s 18 22 mph 1023.2mb 45f 35f
10:04 3ft 5s 18 20 mph 1024mb 45f 33f
9:04 2.5ft 4s 18 22 mph 1024mb 45f 34f
8:04 2.5ft 4s 16 20 mph 1024.4mb 45f 33f
7:04 2ft 3s 16 20 mph 1024.5mb 45f 34f
6:04 2.5ft 6s 13 18 mph 1024.7mb 45f 35f
5:04 2.5ft 4s 16 18 mph 1024.2mb 45f 35f
4:04 2.5ft 5s 16 20 mph 1023.6mb 45f 35f
3:04 2.5ft 6s 11 16 mph 1023.4mb 45f 36f
2:04 2.5ft 6s 9 11 mph 1023.2mb 45f 36f
1:04 2.5ft 6s 11 16 mph 1023.1mb 45f 35f
12:04 2.5ft 6s 9 13 mph 1023.5mb 45f 35f
11:04 3ft 6s 11 16 mph 1023.7mb 45f 35f
10:04 3.5ft 6s 16 18 mph 1024.5mb 45f 36f
9:04 3ft 6s 18 22 mph 1024.1mb 45f 36f
8:04 4ft 6s 20 22 mph 1023.3mb 45f 37f
7:04 4.5ft 6s 20 25 mph 1022mb 45f 38f
6:04 4.5ft 8s 13 18 mph 1021.2mb 45f 38f
5:04 4.5ft 6s 11 13 mph 1020.7mb 45f 37f
4:04 4.5ft 8s 11 13 mph 1020.2mb 45f 37f
3:04 4.5ft 8s 9 11 mph 1020.1mb 45f 37f
2:04 4.5ft 8s 11 13 mph 1019.6mb 45f 38f
1:04 5ft 8s 11 13 mph 1019.2mb 45f 38f
12:04 7ft 8s 13 16 mph 1019mb 45f 38f
Seg 01/16 11:04 6ft 8s 13 18 mph 1019.6mb 45f 39f
10:04 6.5ft 6s 18 20 mph 1019.7mb 44f 40f
9:04 8ft 6s 22 27 mph 1019.8mb 44f 41f
8:04 8ft 6s 27 34 mph 1019.9mb 44f 41f
7:04 8ft 8s 29 34 mph 1020mb 44f 41f
6:04 8ft 6s 31 38 mph 1019.9mb 44f 41f
5:04 8ft 6s 29 34 mph 1020.3mb 44f 40f
4:04 6.5ft 6s 29 36 mph 1020.8mb 45f 40f
3:04 5.5ft 5s 27 31 mph 1021.7mb 45f 39f
2:04 4.5ft 5s 25 29 mph 1022.4mb 45f 38f
1:04 4ft 5s 25 31 mph 1023.8mb 45f 36f
12:04 3ft 4s 22 31 mph 1024.3mb 45f 36f
11:04 2ft 3s 20 25 mph 1026.6mb 45f 33f
10:04 1.3ft 5s 16 22 mph 1028.1mb 45f 30f
9:04 1.3ft 4s 11 13 mph 1029.1mb 44f 28f
8:04 1.3ft 4s 7 11 mph 1029.6mb 44f 27f
7:04 1.3ft 4s 7 9 mph 1029.8mb 44f 24f
6:04 1.3ft 4s 2 4 mph 1030.4mb 44f 22f
5:04 1.3ft 4s 4 7 mph 1030.2mb 44f 21f
4:04 1.3ft 4s 4 7 mph 1030.2mb 44f 21f
3:04 1.6ft 4s 7 9 mph 1030.1mb 45f 20f
2:04 2ft 3s 7 11 mph 1030mb 45f 19f
1:04 2.5ft 4s 11 16 mph 1029.5mb 45f 20f
12:04 2.5ft 4s 13 18 mph 1028.7mb 45f 20f
Dom 01/15 10:04 2.5ft 4s 20 27 mph 1028.4mb 44f 23f
9:04 2.5ft 4s 20 27 mph 1028.9mb 44f 24f
8:04 2.5ft 4s 20 25 mph 1028.8mb 44f 24f
7:04 2.5ft 3s 22 27 mph 1027.8mb 44f 25f
6:04 2.5ft 3s 16 20 mph 1027.6mb 44f 26f
5:04 2.5ft 3s 20 25 mph 1026.2mb 44f 27f
4:04 2.5ft 3s 20 27 mph 1024.8mb 44f 27f
3:04 3ft 3s 18 25 mph 1023.9mb 44f 28f
2:04 3.5ft 4s 18 25 mph 1023.1mb 44f 28f
1:04 4ft 4s 18 25 mph 1022.4mb 44f 28f